Terminal Aerodrome Forecast
Issued by NWS Duluth, MN

Home | Current Version | Previous Version | Text Only | Print | Product List | Glossary On
Versions: 1 2 3 4 5 6 7 8 9 10 11 12 13 14 15 16 17 18 19 20 21 22 23 24 25 26 27 28
070
FTUS43 KDLH 220353 AAB
TAFINL
TAF AMD
KINL 220353Z 2204/2224 00000KT 1/4SM FG VV003
     FM220600 VRB03KT 1/2SM -DZ FZFG OVC003
     FM221600 33002KT 3SM BR OVC004=

USA.gov is the U.S. government's official web portal to all federal, state and local government web resources and services.